Time;durP1;ratioP1;P1;durP2;ratioP2;P2;SDS_P1;SDS_P2;PMS_P1;PMS_P2;Temp;Humidity;BMP_temperature;BMP_pressure;BME280_temperature;BME280_humidity;BME280_pressure;Samples;Min_cycle;Max_cycle;Signal;HPM_P1;HPM_P2
2022/11/05 00:10:41;;;;;;;10.80;9.50;;;9.20;99.90;;;;;;5225126;28;20452;-48
2022/11/05 00:19:07;;;;;;;11.40;8.87;;;9.20;99.90;;;;;;5223797;28;20957;-53
2022/11/05 00:27:16;;;;;;;12.30;7.63;;;9.10;99.90;;;;;;5226899;28;20805;-53
2022/11/05 00:29:46;;;;;;;10.97;8.67;;;9.10;99.90;;;;;;5218009;28;20461;-53
2022/11/05 00:32:17;;;;;;;15.17;8.37;;;9.10;99.90;;;;;;5221428;28;20195;-51
2022/11/05 00:34:48;;;;;;;12.03;9.00;;;9.10;99.90;;;;;;5219844;28;20239;-53
2022/11/05 00:37:18;;;;;;;14.70;10.10;;;9.10;99.90;;;;;;5224184;28;20186;-51
2022/11/05 00:39:49;;;;;;;13.23;8.20;;;9.10;99.90;;;;;;5224632;28;20206;-53
2022/11/05 00:45:09;;;;;;;12.10;7.03;;;9.10;99.90;;;;;;5225670;28;20210;-52
2022/11/05 00:50:37;;;;;;;12.60;6.90;;;9.00;99.90;;;;;;5211454;28;20706;-47
2022/11/05 00:53:07;;;;;;;13.10;8.57;;;9.00;99.90;;;;;;5228575;28;20440;-49
2022/11/05 00:55:40;;;;;;;15.27;9.53;;;9.10;99.90;;;;;;5218717;28;20193;-48
2022/11/05 00:58:17;;;;;;;12.73;7.10;;;9.10;99.90;;;;;;5238363;28;20204;-48
2022/11/05 01:00:50;;;;;;;9.30;7.23;;;9.10;99.90;;;;;;5242863;28;20487;-48
2022/11/05 01:03:23;;;;;;;9.47;7.93;;;9.00;99.90;;;;;;5240583;28;20468;-53
2022/11/05 01:05:58;;;;;;;10.70;7.17;;;9.10;99.90;;;;;;5226835;28;20529;-47
2022/11/05 01:08:29;;;;;;;11.30;8.00;;;9.00;99.90;;;;;;5225322;28;20472;-48
2022/11/05 01:10:59;;;;;;;12.40;8.13;;;9.00;99.90;;;;;;5220260;28;20454;-47
2022/11/05 01:13:30;;;;;;;9.57;8.17;;;9.10;99.90;;;;;;5221507;28;20228;-48
2022/11/05 01:16:08;;;;;;;19.87;7.97;;;9.00;99.90;;;;;;5226932;28;20212;-48
2022/11/05 01:18:39;;;;;;;11.03;7.60;;;9.00;99.90;;;;;;5225183;28;20202;-48
2022/11/05 01:21:12;;;;;;;12.30;7.27;;;9.00;99.90;;;;;;5228154;28;20456;-49
2022/11/05 01:23:42;;;;;;;11.80;7.70;;;9.00;99.90;;;;;;5228701;28;20179;-46
2022/11/05 01:26:13;;;;;;;20.73;7.30;;;9.00;99.90;;;;;;5226345;28;22644;-48
2022/11/05 01:28:43;;;;;;;7.77;6.57;;;8.90;99.90;;;;;;5223427;28;20268;-52
2022/11/05 01:31:14;;;;;;;13.23;7.37;;;8.90;99.90;;;;;;5223203;28;20218;-53
2022/11/05 01:33:45;;;;;;;8.77;6.70;;;8.90;99.90;;;;;;5223769;28;20179;-51
2022/11/05 01:36:16;;;;;;;13.37;7.03;;;8.90;99.90;;;;;;5228126;28;20202;-53
2022/11/05 01:38:46;;;;;;;14.23;6.53;;;8.90;99.90;;;;;;5222797;28;20195;-54
2022/11/05 01:41:17;;;;;;;11.97;7.60;;;9.00;99.90;;;;;;5224890;28;20444;-47
2022/11/05 01:43:54;;;;;;;11.00;6.83;;;9.00;99.90;;;;;;5219512;28;20210;-50
2022/11/05 01:46:24;;;;;;;11.23;7.57;;;9.00;99.90;;;;;;5242312;28;20194;-49
2022/11/05 01:48:59;;;;;;;11.90;6.83;;;9.00;99.90;;;;;;5224917;28;20472;-48
2022/11/05 01:51:30;;;;;;;10.20;7.23;;;8.90;99.90;;;;;;5223653;28;20179;-49
2022/11/05 01:54:09;;;;;;;13.17;7.10;;;8.90;99.90;;;;;;5225992;28;20436;-47
2022/11/05 01:56:44;;;;;;;8.00;7.20;;;8.90;99.90;;;;;;5220411;28;20513;-47
2022/11/05 01:59:22;;;;;;;8.07;7.27;;;8.80;99.90;;;;;;5224369;28;20457;-47
2022/11/05 02:01:53;;;;;;;8.77;6.90;;;8.80;99.90;;;;;;5221809;28;20459;-48
2022/11/05 02:04:31;;;;;;;9.17;7.47;;;8.80;99.90;;;;;;5221535;28;20433;-47
2022/11/05 02:07:04;;;;;;;11.10;7.83;;;8.80;99.90;;;;;;5226670;28;20429;-47
2022/11/05 02:10:07;;;;;;;10.80;7.93;;;8.80;99.90;;;;;;5213598;28;20465;-48
2022/11/05 02:12:42;;;;;;;12.90;7.10;;;8.80;99.90;;;;;;5223264;28;21191;-46
2022/11/05 02:15:23;;;;;;;8.87;6.70;;;8.70;99.90;;;;;;5225369;28;20453;-48
2022/11/05 02:18:19;;;;;;;17.33;7.30;;;8.70;99.90;;;;;;5226883;28;20467;-47
2022/11/05 02:21:08;;;;;;;10.80;7.60;;;8.70;99.90;;;;;;5224709;28;20510;-47
2022/11/05 02:24:06;;;;;;;13.90;8.13;;;8.70;99.90;;;;;;5224739;28;20530;-47
2022/11/05 02:27:31;;;;;;;14.93;8.30;;;8.70;99.90;;;;;;5219701;28;20517;-47
2022/11/05 02:30:27;;;;;;;12.67;7.80;;;8.70;99.90;;;;;;5180384;28;20477;-46
2022/11/05 02:33:20;;;;;;;14.27;8.43;;;8.70;99.90;;;;;;5226458;28;20441;-47
2022/11/05 02:36:33;;;;;;;10.90;9.10;;;8.70;99.90;;;;;;5222130;28;20476;-48
2022/11/05 02:39:42;;;;;;;14.40;9.40;;;8.60;99.90;;;;;;5210248;28;20826;-46
2022/11/05 02:42:37;;;;;;;15.70;9.40;;;8.60;99.90;;;;;;5231958;28;20445;-46
2022/11/05 02:45:16;;;;;;;16.30;11.27;;;8.50;99.90;;;;;;5234455;28;20953;-46
2022/11/05 02:48:00;;;;;;;16.53;10.50;;;8.40;99.90;;;;;;5224385;28;20514;-46
2022/11/05 02:50:36;;;;;;;20.00;9.47;;;8.40;99.90;;;;;;5238545;28;20453;-46
2022/11/05 02:53:15;;;;;;;11.83;9.70;;;8.40;99.90;;;;;;5241830;28;20489;-46
2022/11/05 02:56:17;;;;;;;25.00;11.23;;;8.40;99.90;;;;;;5225229;28;20433;-49
2022/11/05 02:58:47;;;;;;;21.00;11.13;;;8.30;99.90;;;;;;5214552;28;20964;-48
2022/11/05 03:01:18;;;;;;;19.23;11.17;;;8.20;99.90;;;;;;5239511;28;20437;-47
2022/11/05 03:04:11;;;;;;;19.17;11.20;;;8.10;99.90;;;;;;5241302;28;20190;-47
2022/11/05 03:06:56;;;;;;;23.43;11.57;;;8.10;99.90;;;;;;5220443;28;20179;-49
2022/11/05 03:09:48;;;;;;;16.30;10.47;;;8.10;99.90;;;;;;5223915;28;20476;-50
2022/11/05 03:12:56;;;;;;;12.07;9.13;;;8.10;99.90;;;;;;5210672;28;20430;-47
2022/11/05 03:15:41;;;;;;;15.90;10.60;;;8.10;99.90;;;;;;5222790;28;20433;-48
2022/11/05 03:18:15;;;;;;;16.93;10.67;;;8.10;99.90;;;;;;5224032;28;20526;-47
2022/11/05 03:20:51;;;;;;;18.40;10.63;;;8.00;99.90;;;;;;5226931;28;20453;-46
2022/11/05 03:23:44;;;;;;;15.70;10.83;;;7.90;99.90;;;;;;5224970;28;20444;-48
2022/11/05 03:26:32;;;;;;;18.27;10.67;;;7.90;99.90;;;;;;5227010;28;20433;-46
2022/11/05 03:29:11;;;;;;;21.23;10.53;;;7.90;99.90;;;;;;5222263;28;20471;-47
2022/11/05 03:31:45;;;;;;;19.00;10.47;;;7.80;99.90;;;;;;5223591;28;20472;-47
2022/11/05 03:34:19;;;;;;;16.63;10.77;;;7.90;99.90;;;;;;5227119;28;20567;-47
2022/11/05 03:36:53;;;;;;;20.90;10.10;;;7.80;99.90;;;;;;5241831;28;20457;-46
2022/11/05 03:39:50;;;;;;;14.93;10.50;;;7.80;99.90;;;;;;5231673;28;20940;-46
2022/11/05 03:42:25;;;;;;;17.03;10.17;;;7.80;99.90;;;;;;5224221;28;20540;-47
2022/11/05 03:45:00;;;;;;;14.77;9.80;;;7.90;99.90;;;;;;5217440;28;20426;-46
2022/11/05 03:47:35;;;;;;;15.40;10.67;;;7.90;99.90;;;;;;5235642;28;20745;-47
2022/11/05 03:50:10;;;;;;;16.43;10.30;;;7.90;99.90;;;;;;5236134;28;20456;-48
2022/11/05 03:52:47;;;;;;;14.60;9.50;;;7.80;99.90;;;;;;5225719;28;20455;-46
2022/11/05 03:55:25;;;;;;;20.97;9.67;;;7.80;99.90;;;;;;5223607;28;20440;-46
2022/11/05 03:57:57;;;;;;;15.10;9.47;;;7.80;99.90;;;;;;5226034;28;20869;-47
2022/11/05 04:00:27;;;;;;;22.77;10.97;;;7.80;99.90;;;;;;5221094;28;20432;-47
2022/11/05 04:02:58;;;;;;;17.77;10.23;;;7.80;99.90;;;;;;5228307;28;20441;-46
2022/11/05 04:05:29;;;;;;;18.07;11.53;;;7.80;99.90;;;;;;5227143;28;20179;-47
2022/11/05 04:13:38;;;;;;;21.93;10.40;;;7.70;99.90;;;;;;5248572;28;20435;-51
2022/11/05 04:18:58;;;;;;;16.77;9.90;;;7.70;99.90;;;;;;5232039;28;20234;-50
2022/11/05 04:24:18;;;;;;;22.37;11.60;;;7.60;99.90;;;;;;5219711;28;20182;-50
2022/11/05 04:26:48;;;;;;;14.90;10.67;;;7.60;99.90;;;;;;5221793;28;20429;-49
2022/11/05 04:32:08;;;;;;;23.20;11.10;;;7.60;99.90;;;;;;5217705;28;20314;-48
2022/11/05 04:34:39;;;;;;;23.30;12.17;;;7.60;99.90;;;;;;5217960;28;20513;-50
2022/11/05 04:37:09;;;;;;;28.27;11.13;;;7.50;99.90;;;;;;5219150;28;20544;-50
2022/11/05 04:39:40;;;;;;;18.77;10.43;;;7.50;99.90;;;;;;5224029;28;20286;-49
2022/11/05 04:42:10;;;;;;;20.40;10.40;;;7.50;99.90;;;;;;5231025;28;20187;-48
2022/11/05 04:44:41;;;;;;;18.77;10.80;;;7.50;99.90;;;;;;5223138;28;20682;-49
2022/11/05 04:47:12;;;;;;;16.50;9.10;;;7.50;99.90;;;;;;5224192;28;20187;-50
2022/11/05 04:49:42;;;;;;;23.53;10.13;;;7.50;99.90;;;;;;5220544;28;20212;-49
2022/11/05 04:52:13;;;;;;;18.07;10.60;;;7.50;99.90;;;;;;5218161;28;20176;-50
2022/11/05 04:54:44;;;;;;;26.73;10.20;;;7.50;99.90;;;;;;5216246;28;20233;-49
2022/11/05 04:57:14;;;;;;;28.20;11.10;;;7.40;99.90;;;;;;5224803;28;20179;-48
2022/11/05 04:59:47;;;;;;;24.37;10.70;;;7.40;99.90;;;;;;5225750;28;20297;-51
2022/11/05 05:02:18;;;;;;;24.30;10.57;;;7.40;99.90;;;;;;5230253;28;20642;-49
2022/11/05 05:04:49;;;;;;;42.63;10.10;;;7.40;99.90;;;;;;5219425;28;20465;-49
2022/11/05 05:07:19;;;;;;;17.07;10.10;;;7.40;99.90;;;;;;5223147;28;20179;-49
2022/11/05 05:09:50;;;;;;;22.70;10.73;;;7.40;99.90;;;;;;5225676;28;20260;-48
2022/11/05 05:12:21;;;;;;;17.93;8.80;;;7.40;99.90;;;;;;5223447;28;20176;-49
2022/11/05 05:14:52;;;;;;;15.70;9.43;;;7.40;99.90;;;;;;5223226;28;20178;-50
2022/11/05 05:17:23;;;;;;;26.80;10.30;;;7.30;99.90;;;;;;5238293;28;20503;-50
2022/11/05 05:22:43;;;;;;;21.10;9.70;;;7.40;99.90;;;;;;5220464;28;20228;-48
2022/11/05 05:25:13;;;;;;;24.73;9.20;;;7.30;99.90;;;;;;5232099;28;20434;-48
2022/11/05 05:27:44;;;;;;;11.07;8.30;;;7.30;99.90;;;;;;5229037;28;20182;-48
2022/11/05 05:30:15;;;;;;;14.37;9.67;;;7.20;99.90;;;;;;5236557;28;20207;-50
2022/11/05 05:32:46;;;;;;;21.17;8.83;;;7.20;99.90;;;;;;5223199;28;20194;-49
2022/11/05 05:35:16;;;;;;;20.43;8.13;;;7.20;99.90;;;;;;5224805;28;20666;-49
2022/11/05 05:37:47;;;;;;;14.70;8.33;;;7.20;99.90;;;;;;5226650;28;20248;-49
2022/11/05 05:40:18;;;;;;;18.73;10.70;;;7.20;99.90;;;;;;5222326;28;20262;-48
2022/11/05 05:42:54;;;;;;;21.97;9.73;;;7.20;99.90;;;;;;5239570;28;20188;-49
2022/11/05 05:45:24;;;;;;;17.50;8.60;;;7.20;99.90;;;;;;5223674;28;20221;-50
2022/11/05 05:47:55;;;;;;;12.57;8.80;;;7.20;99.90;;;;;;5222732;28;20474;-47
2022/11/05 05:50:26;;;;;;;13.30;9.30;;;7.20;99.90;;;;;;5219036;28;20288;-48
2022/11/05 05:52:57;;;;;;;17.30;9.80;;;7.20;99.90;;;;;;5241392;28;20178;-50
2022/11/05 05:55:27;;;;;;;16.13;8.90;;;7.20;99.90;;;;;;5226287;28;20191;-46
2022/11/05 05:57:58;;;;;;;21.50;9.90;;;7.10;99.90;;;;;;5222470;28;20671;-50
2022/11/05 06:00:29;;;;;;;21.60;9.03;;;7.10;99.90;;;;;;5223573;28;20180;-50
2022/11/05 06:02:59;;;;;;;23.83;9.80;;;7.10;99.90;;;;;;5213621;28;20191;-48
2022/11/05 06:05:30;;;;;;;20.57;8.93;;;7.00;99.90;;;;;;5224083;28;20233;-47
2022/11/05 06:08:01;;;;;;;20.50;9.90;;;7.00;99.90;;;;;;5219668;28;20191;-48
2022/11/05 06:10:31;;;;;;;12.10;8.20;;;7.00;99.90;;;;;;5232854;28;20278;-48
2022/11/05 06:13:02;;;;;;;21.83;8.87;;;6.90;99.90;;;;;;5221349;28;20175;-48
2022/11/05 06:15:33;;;;;;;26.10;8.60;;;6.90;99.90;;;;;;5223889;28;20757;-48
2022/11/05 06:18:04;;;;;;;24.33;8.80;;;6.90;99.90;;;;;;5219611;28;20266;-48
2022/11/05 06:20:34;;;;;;;19.13;8.40;;;6.90;99.90;;;;;;5217747;28;20604;-47
2022/11/05 06:23:05;;;;;;;17.50;9.57;;;6.90;99.90;;;;;;5221248;28;20327;-49
2022/11/05 06:25:36;;;;;;;18.13;10.70;;;6.90;99.90;;;;;;5223937;28;20193;-48
2022/11/05 06:28:06;;;;;;;14.40;8.07;;;6.90;99.90;;;;;;5216071;28;20179;-48
2022/11/05 06:30:37;;;;;;;19.30;8.33;;;6.90;99.90;;;;;;5226096;28;20213;-51
2022/11/05 06:33:08;;;;;;;18.63;8.33;;;6.90;99.90;;;;;;5234716;28;20178;-48
2022/11/05 06:35:38;;;;;;;17.70;7.30;;;7.00;99.90;;;;;;5224662;28;20217;-47
2022/11/05 06:38:09;;;;;;;32.50;8.90;;;7.00;99.90;;;;;;5216786;28;20175;-50
2022/11/05 06:40:40;;;;;;;11.83;7.33;;;7.00;99.90;;;;;;5218291;28;20677;-49
2022/11/05 06:43:11;;;;;;;21.83;7.37;;;7.10;99.90;;;;;;5217168;28;20581;-49
2022/11/05 06:45:41;;;;;;;21.70;8.70;;;7.10;99.90;;;;;;5215006;28;20191;-47
2022/11/05 06:48:12;;;;;;;23.00;8.07;;;7.10;99.90;;;;;;5227714;28;20551;-47
2022/11/05 06:50:44;;;;;;;19.87;8.87;;;7.10;99.90;;;;;;5218100;28;20290;-48
2022/11/05 06:53:15;;;;;;;21.33;7.40;;;7.10;99.90;;;;;;5241067;28;20579;-47
2022/11/05 06:55:49;;;;;;;14.70;7.33;;;7.20;99.90;;;;;;5238073;28;20456;-47
2022/11/05 06:58:22;;;;;;;27.17;8.70;;;7.20;99.90;;;;;;5239032;28;20445;-48
2022/11/05 07:00:53;;;;;;;13.20;6.33;;;7.20;99.90;;;;;;5217409;28;20445;-47
2022/11/05 07:03:24;;;;;;;19.33;7.60;;;7.20;99.90;;;;;;5220623;28;20473;-47
2022/11/05 07:05:58;;;;;;;8.87;6.20;;;7.20;99.90;;;;;;5237532;28;20270;-48
2022/11/05 07:08:33;;;;;;;21.60;7.33;;;7.20;99.90;;;;;;5225746;28;20209;-48
2022/11/05 07:11:04;;;;;;;11.37;7.70;;;7.20;99.90;;;;;;5220882;28;20494;-48
2022/11/05 07:13:35;;;;;;;16.80;7.43;;;7.20;99.90;;;;;;5220412;28;20436;-48
2022/11/05 07:16:06;;;;;;;11.23;6.73;;;7.30;99.90;;;;;;5221036;28;20446;-48
2022/11/05 07:18:37;;;;;;;16.43;6.97;;;7.30;99.90;;;;;;5215894;28;20208;-47
2022/11/05 07:21:07;;;;;;;23.40;8.03;;;7.30;99.90;;;;;;5217318;28;20198;-49
2022/11/05 07:23:38;;;;;;;14.57;6.67;;;7.20;99.90;;;;;;5239313;28;20582;-48
2022/11/05 07:26:08;;;;;;;10.87;6.77;;;7.20;99.90;;;;;;5220218;28;20194;-47
2022/11/05 07:28:39;;;;;;;21.37;7.73;;;7.20;99.90;;;;;;5223875;28;20260;-50
2022/11/05 07:31:10;;;;;;;20.23;5.80;;;7.20;99.90;;;;;;5222829;28;20659;-49
2022/11/05 07:33:41;;;;;;;15.73;6.93;;;7.20;99.90;;;;;;5228220;28;20241;-49
2022/11/05 07:36:13;;;;;;;36.93;6.83;;;7.20;99.90;;;;;;5223734;28;20266;-50
2022/11/05 07:38:44;;;;;;;19.37;6.47;;;7.20;99.90;;;;;;5232301;28;20195;-48
2022/11/05 07:41:14;;;;;;;16.40;6.60;;;7.20;99.90;;;;;;5239429;28;20495;-47
2022/11/05 07:43:45;;;;;;;30.43;8.80;;;7.20;99.90;;;;;;5223360;28;20438;-50
2022/11/05 07:46:16;;;;;;;17.47;6.20;;;7.20;99.90;;;;;;5216723;28;20277;-50
2022/11/05 07:48:46;;;;;;;10.80;7.07;;;7.30;99.90;;;;;;5234104;28;20202;-49
2022/11/05 07:51:17;;;;;;;14.77;7.37;;;7.40;99.90;;;;;;5219880;28;20211;-48
2022/11/05 07:53:47;;;;;;;14.33;7.83;;;7.60;99.90;;;;;;5221773;28;20195;-51
2022/11/05 07:56:18;;;;;;;14.80;7.83;;;7.70;99.90;;;;;;5235309;28;20186;-50
2022/11/05 07:58:49;;;;;;;9.60;7.00;;;7.80;99.90;;;;;;5223799;28;20199;-49
2022/11/05 08:01:19;;;;;;;18.93;6.23;;;7.90;99.90;;;;;;5234209;28;20183;-50
2022/11/05 08:03:50;;;;;;;18.73;6.90;;;7.90;99.90;;;;;;5216030;28;20216;-51
2022/11/05 08:06:21;;;;;;;16.70;7.13;;;7.80;99.90;;;;;;5221357;28;20573;-50
2022/11/05 08:08:51;;;;;;;16.93;7.30;;;7.70;99.90;;;;;;5223497;28;20695;-48
2022/11/05 08:11:22;;;;;;;20.63;6.23;;;7.70;99.90;;;;;;5220639;28;20511;-49
2022/11/05 08:13:53;;;;;;;15.40;6.30;;;7.50;99.90;;;;;;5217111;28;20229;-48
2022/11/05 08:16:23;;;;;;;14.50;6.63;;;7.50;99.90;;;;;;5223007;28;20206;-48
2022/11/05 08:18:54;;;;;;;17.07;7.40;;;7.60;99.90;;;;;;5223504;28;20199;-47
2022/11/05 08:21:25;;;;;;;22.23;6.83;;;7.60;99.90;;;;;;5219599;28;20565;-49
2022/11/05 08:23:55;;;;;;;18.67;7.20;;;7.60;99.90;;;;;;5211734;28;20191;-49
2022/11/05 08:26:26;;;;;;;10.60;6.53;;;7.60;99.90;;;;;;5213196;28;20182;-50
2022/11/05 08:28:56;;;;;;;16.13;6.83;;;7.70;99.90;;;;;;5209180;28;20211;-49
2022/11/05 08:31:27;;;;;;;13.80;6.67;;;7.80;99.90;;;;;;5215672;28;26493;-50
2022/11/05 08:33:58;;;;;;;23.47;6.00;;;7.90;99.90;;;;;;5221711;28;20205;-50
2022/11/05 08:36:28;;;;;;;9.00;5.67;;;8.10;99.90;;;;;;5240176;28;20179;-48
2022/11/05 08:38:59;;;;;;;17.03;6.60;;;8.20;99.90;;;;;;5236750;28;20287;-48
2022/11/05 08:41:29;;;;;;;16.17;7.00;;;8.30;99.90;;;;;;5224388;28;20220;-51
2022/11/05 08:44:00;;;;;;;10.23;5.67;;;8.40;99.90;;;;;;5223948;28;20262;-51
2022/11/05 08:46:31;;;;;;;11.97;6.43;;;8.40;99.90;;;;;;5223349;28;20662;-50
2022/11/05 08:49:02;;;;;;;11.97;6.30;;;8.50;99.90;;;;;;5217973;28;20205;-49
2022/11/05 08:51:33;;;;;;;22.80;6.50;;;8.60;99.90;;;;;;5223795;28;20672;-51
2022/11/05 08:54:04;;;;;;;10.90;4.43;;;8.50;99.90;;;;;;5213819;28;20437;-49
2022/11/05 08:56:35;;;;;;;17.23;6.03;;;8.60;99.90;;;;;;5214035;28;20308;-51
2022/11/05 08:59:06;;;;;;;11.30;5.77;;;8.60;99.90;;;;;;5223708;28;20536;-49
2022/11/05 09:01:37;;;;;;;10.93;5.97;;;8.70;99.90;;;;;;5223956;28;20978;-49
2022/11/05 09:04:07;;;;;;;12.50;5.17;;;8.80;99.90;;;;;;5227937;28;20173;-49
2022/11/05 09:06:41;;;;;;;11.63;5.17;;;8.90;99.90;;;;;;5237006;28;20179;-50
2022/11/05 09:09:12;;;;;;;9.63;4.50;;;9.00;99.90;;;;;;5215076;28;21646;-51
2022/11/05 09:11:43;;;;;;;10.30;5.23;;;9.00;99.90;;;;;;5233170;28;20443;-50
2022/11/05 09:14:13;;;;;;;10.07;5.87;;;9.10;99.90;;;;;;5232363;28;20748;-49
2022/11/05 09:16:44;;;;;;;17.00;5.03;;;9.20;99.90;;;;;;5227370;28;20429;-51
2022/11/05 09:19:15;;;;;;;7.93;4.07;;;9.20;99.90;;;;;;5227943;28;20195;-49
2022/11/05 09:21:46;;;;;;;10.90;4.70;;;9.20;99.90;;;;;;5226741;28;20449;-48
2022/11/05 09:24:16;;;;;;;15.37;5.07;;;9.30;99.90;;;;;;5215268;28;20190;-50
2022/11/05 09:26:47;;;;;;;12.73;5.10;;;9.30;99.90;;;;;;5234349;28;20273;-50
2022/11/05 09:29:18;;;;;;;17.40;4.77;;;9.40;99.90;;;;;;5217028;28;20378;-54
2022/11/05 09:31:48;;;;;;;13.43;4.50;;;9.50;99.90;;;;;;5222447;28;20183;-52
2022/11/05 09:34:19;;;;;;;7.50;4.47;;;9.60;99.90;;;;;;5217156;28;20593;-49
2022/11/05 09:36:50;;;;;;;13.40;5.10;;;9.70;99.90;;;;;;5212989;28;21439;-49
2022/11/05 09:39:20;;;;;;;9.70;3.90;;;9.80;99.90;;;;;;5224659;28;20302;-50
2022/11/05 09:41:53;;;;;;;14.23;4.17;;;9.80;99.90;;;;;;5234591;28;20724;-50
2022/11/05 09:44:38;;;;;;;7.87;3.63;;;9.80;99.90;;;;;;5227969;28;20187;-54
2022/11/05 09:47:23;;;;;;;25.43;5.43;;;9.80;99.90;;;;;;5221792;28;20433;-50
2022/11/05 09:49:56;;;;;;;10.70;4.50;;;9.80;99.90;;;;;;5219279;28;20509;-50
2022/11/05 09:52:29;;;;;;;9.27;4.47;;;9.80;99.90;;;;;;5235316;28;20877;-50
2022/11/05 09:55:03;;;;;;;7.50;4.00;;;9.90;99.90;;;;;;5235447;28;20583;-50
2022/11/05 09:57:43;;;;;;;13.73;4.57;;;10.00;99.90;;;;;;5236649;28;20524;-49
2022/11/05 10:00:15;;;;;;;12.60;4.27;;;10.00;99.90;;;;;;5220538;28;21032;-51
2022/11/05 10:02:51;;;;;;;16.67;4.47;;;10.10;99.90;;;;;;5213692;28;20437;-49
2022/11/05 10:05:24;;;;;;;6.20;2.97;;;10.20;99.90;;;;;;5213373;28;20967;-51
2022/11/05 10:08:06;;;;;;;14.87;3.77;;;10.20;99.90;;;;;;5217542;28;22811;-53
2022/11/05 10:10:44;;;;;;;16.53;4.27;;;10.20;99.90;;;;;;5215088;28;20862;-50
2022/11/05 10:13:24;;;;;;;5.83;2.90;;;10.10;99.90;;;;;;5222936;28;20874;-52
2022/11/05 10:16:01;;;;;;;11.27;3.30;;;10.20;99.90;;;;;;5216731;28;20433;-52
2022/11/05 10:18:35;;;;;;;6.30;3.17;;;10.20;99.90;;;;;;5216343;28;20472;-53
2022/11/05 10:21:15;;;;;;;7.50;3.73;;;10.30;99.90;;;;;;5231315;28;20494;-53
2022/11/05 10:23:46;;;;;;;25.70;3.53;;;10.40;99.90;;;;;;5213829;28;20445;-51
2022/11/05 10:26:21;;;;;;;8.13;3.30;;;10.40;99.90;;;;;;5213212;28;20445;-52
2022/11/05 10:28:52;;;;;;;8.80;3.23;;;10.50;99.90;;;;;;5223071;28;20457;-51
2022/11/05 10:31:23;;;;;;;6.47;3.30;;;10.50;99.90;;;;;;5210188;28;20472;-53
2022/11/05 10:34:00;;;;;;;9.70;2.87;;;10.60;99.90;;;;;;5214406;28;20433;-49
2022/11/05 10:36:36;;;;;;;4.73;2.90;;;10.60;99.90;;;;;;5230953;28;20577;-53
2022/11/05 10:39:16;;;;;;;14.67;3.40;;;10.70;99.90;;;;;;5212222;28;20449;-51
2022/11/05 10:42:08;;;;;;;2.97;2.20;;;10.70;99.90;;;;;;5224279;28;20443;-50
2022/11/05 10:44:50;;;;;;;9.60;3.93;;;10.90;99.90;;;;;;5215127;28;20434;-52
2022/11/05 10:47:40;;;;;;;3.60;2.40;;;10.90;99.90;;;;;;5216289;28;20469;-51
2022/11/05 10:50:15;;;;;;;6.10;2.50;;;11.00;99.90;;;;;;5216093;28;20485;-53
2022/11/05 10:53:10;;;;;;;9.90;4.10;;;11.00;99.90;;;;;;5226134;28;20837;-53
2022/11/05 10:55:49;;;;;;;4.27;2.53;;;11.00;99.90;;;;;;5223730;28;20461;-53
2022/11/05 10:58:26;;;;;;;2.03;1.93;;;11.10;99.90;;;;;;5216858;28;20795;-52
2022/11/05 11:00:56;;;;;;;9.27;2.33;;;11.20;99.90;;;;;;5219957;28;20848;-54
2022/11/05 11:03:27;;;;;;;7.47;2.87;;;11.20;99.90;;;;;;5217121;28;20445;-53
2022/11/05 11:06:11;;;;;;;13.67;4.93;;;11.20;99.90;;;;;;5221911;28;20189;-51
2022/11/05 11:08:45;;;;;;;6.77;3.17;;;11.30;99.90;;;;;;5224841;28;20218;-53
2022/11/05 11:11:39;;;;;;;5.67;2.40;;;11.30;99.90;;;;;;5227393;28;20474;-54
2022/11/05 11:14:12;;;;;;;6.70;2.83;;;11.30;99.90;;;;;;5237961;28;20948;-51
2022/11/05 11:16:46;;;;;;;8.13;2.37;;;11.40;99.90;;;;;;5226064;28;20464;-53
2022/11/05 11:19:24;;;;;;;6.00;1.93;;;11.40;99.90;;;;;;5225511;28;20972;-52
2022/11/05 11:22:10;;;;;;;9.13;2.07;;;11.50;99.90;;;;;;5221917;28;20444;-53
2022/11/05 11:24:48;;;;;;;13.67;2.43;;;11.50;99.90;;;;;;5224459;28;20965;-51
2022/11/05 11:27:32;;;;;;;15.00;2.63;;;11.70;99.90;;;;;;5218342;28;20437;-53
2022/11/05 11:30:04;;;;;;;6.50;2.33;;;11.80;99.90;;;;;;5226476;28;20514;-52
2022/11/05 11:32:39;;;;;;;4.27;2.07;;;11.70;99.90;;;;;;5235152;28;20445;-52
2022/11/05 11:35:21;;;;;;;9.93;2.30;;;11.70;99.90;;;;;;5229737;28;20460;-52
2022/11/05 11:37:54;;;;;;;2.93;1.90;;;11.60;99.90;;;;;;5237569;28;20445;-54
2022/11/05 11:40:35;;;;;;;3.03;2.00;;;11.60;99.90;;;;;;5234790;28;20920;-52
2022/11/05 11:43:21;;;;;;;4.63;1.90;;;11.70;99.90;;;;;;5225461;28;20441;-53
2022/11/05 11:45:54;;;;;;;9.00;2.60;;;11.70;99.90;;;;;;5221774;28;20491;-53
2022/11/05 11:48:28;;;;;;;7.77;2.40;;;11.80;99.90;;;;;;5238709;28;20826;-52
2022/11/05 11:51:18;;;;;;;9.60;2.03;;;11.90;99.90;;;;;;5219252;28;20523;-54
2022/11/05 11:53:49;;;;;;;4.83;1.93;;;11.80;99.90;;;;;;5219459;28;20441;-53
2022/11/05 11:56:20;;;;;;;4.87;2.23;;;11.90;99.90;;;;;;5224923;28;20777;-54
2022/11/05 11:58:53;;;;;;;3.37;2.00;;;11.90;99.90;;;;;;5227616;28;20239;-54
2022/11/05 12:01:43;;;;;;;10.20;2.33;;;11.90;99.90;;;;;;5218352;28;20441;-52
2022/11/05 12:04:22;;;;;;;2.97;1.70;;;11.90;99.90;;;;;;5222603;28;20441;-52
2022/11/05 12:07:11;;;;;;;10.37;1.40;;;12.00;99.90;;;;;;5224925;28;20437;-53
2022/11/05 12:09:53;;;;;;;7.03;2.03;;;12.10;99.90;;;;;;5238070;28;20553;-53
2022/11/05 12:12:40;;;;;;;4.40;1.83;;;12.20;99.90;;;;;;5223622;28;20453;-52
2022/11/05 12:15:26;;;;;;;18.87;2.63;;;12.20;99.90;;;;;;5220316;28;20433;-53
2022/11/05 12:18:05;;;;;;;4.33;2.03;;;12.30;99.90;;;;;;5224192;28;20445;-52
2022/11/05 12:21:03;;;;;;;2.77;2.17;;;12.30;99.90;;;;;;5222860;28;20453;-53
2022/11/05 12:23:53;;;;;;;2.67;2.00;;;12.30;99.90;;;;;;5213791;28;20445;-53
2022/11/05 12:26:39;;;;;;;6.77;2.07;;;12.30;99.90;;;;;;5222986;28;20442;-52
2022/11/05 12:29:30;;;;;;;4.93;2.53;;;12.30;99.90;;;;;;5218410;28;20526;-52
2022/11/05 12:32:35;;;;;;;6.17;3.30;;;12.60;99.90;;;;;;5215381;28;21041;-53
2022/11/05 12:35:15;;;;;;;5.50;2.00;;;12.70;99.90;;;;;;5221772;28;20437;-50
2022/11/05 12:37:51;;;;;;;8.13;1.77;;;12.70;99.90;;;;;;5219801;28;20477;-53
2022/11/05 12:40:43;;;;;;;2.57;1.47;;;12.90;99.90;;;;;;5222306;28;20465;-54
2022/11/05 12:43:20;;;;;;;9.07;4.27;;;13.20;99.90;;;;;;5224997;28;20465;-53
2022/11/05 12:46:25;;;;;;;6.33;2.17;;;13.40;99.90;;;;;;5222849;28;20444;-52
2022/11/05 12:49:20;;;;;;;5.10;1.70;;;13.60;99.90;;;;;;5214910;28;20549;-51
2022/11/05 12:51:50;;;;;;;3.40;1.63;;;13.70;99.90;;;;;;5216353;28;20969;-49
2022/11/05 12:54:44;;;;;;;6.00;2.03;;;13.60;99.90;;;;;;5217854;28;20434;-54
2022/11/05 12:57:16;;;;;;;9.00;1.70;;;13.70;99.90;;;;;;5218083;28;20175;-53
2022/11/05 12:59:53;;;;;;;4.33;1.60;;;13.70;99.90;;;;;;5214782;28;20457;-53
2022/11/05 13:02:46;;;;;;;15.17;1.50;;;13.70;99.90;;;;;;5208296;28;20446;-54
2022/11/05 13:05:32;;;;;;;9.73;4.20;;;13.50;99.90;;;;;;5221251;28;20453;-52
2022/11/05 13:08:17;;;;;;;4.47;1.90;;;13.40;99.90;;;;;;5220634;28;20450;-52
2022/11/05 13:10:59;;;;;;;3.70;1.40;;;13.30;99.90;;;;;;5213238;28;20805;-52
2022/11/05 13:13:37;;;;;;;8.03;3.37;;;13.10;99.90;;;;;;5212775;28;20824;-52
2022/11/05 13:16:23;;;;;;;9.83;1.97;;;13.10;99.90;;;;;;5211422;28;20429;-50
2022/11/05 13:19:01;;;;;;;25.77;6.00;;;13.10;99.90;;;;;;5209787;28;20993;-53
2022/11/05 13:21:35;;;;;;;5.80;4.40;;;12.80;99.90;;;;;;5216337;28;20465;-53
2022/11/05 13:24:30;;;;;;;6.33;2.73;;;12.90;99.90;;;;;;5220442;28;20540;-54
2022/11/05 13:27:37;;;;;;;11.43;2.47;;;12.60;99.90;;;;;;5220550;28;20430;-53
2022/11/05 13:30:15;;;;;;;4.70;2.90;;;12.40;99.90;;;;;;5226085;28;20453;-53
2022/11/05 13:32:58;;;;;;;10.70;3.63;;;12.20;99.90;;;;;;5218037;28;20916;-52
2022/11/05 13:35:36;;;;;;;6.20;2.30;;;12.10;99.90;;;;;;5219193;28;20662;-52
2022/11/05 13:41:26;;;;;;;4.00;1.80;;;12.00;99.90;;;;;;5216948;28;20868;-52
2022/11/05 13:44:18;;;;;;;6.60;2.40;;;11.80;99.90;;;;;;5199531;28;20856;-53
2022/11/05 13:47:33;;;;;;;17.47;2.00;;;11.80;99.90;;;;;;5218200;28;20782;-53
2022/11/05 13:50:41;;;;;;;2.77;1.60;;;11.60;99.90;;;;;;5214911;28;20480;-53
2022/11/05 13:53:53;;;;;;;5.70;2.10;;;11.50;99.90;;;;;;5220210;28;20483;-54
2022/11/05 13:56:30;;;;;;;9.37;3.87;;;11.40;99.90;;;;;;5213100;28;20809;-54
2022/11/05 13:59:15;;;;;;;5.20;3.93;;;11.30;99.90;;;;;;5220801;28;20455;-53
2022/11/05 14:02:01;;;;;;;26.23;10.57;;;11.20;99.90;;;;;;5218723;28;20444;-52
2022/11/05 14:04:39;;;;;;;14.83;4.60;;;11.10;99.90;;;;;;5221636;28;20550;-53
2022/11/05 14:07:18;;;;;;;10.47;4.93;;;11.00;99.90;;;;;;5220436;28;20436;-53
2022/11/05 14:09:56;;;;;;;6.07;3.00;;;11.00;99.90;;;;;;5219870;28;20476;-52
2022/11/05 14:12:30;;;;;;;7.37;3.33;;;10.80;99.90;;;;;;5222312;28;20468;-53
2022/11/05 14:15:16;;;;;;;7.43;2.63;;;10.80;99.90;;;;;;5218072;28;20453;-51
2022/11/05 14:18:06;;;;;;;8.03;3.20;;;10.80;99.90;;;;;;5222054;28;20958;-53
2022/11/05 14:20:41;;;;;;;15.63;4.43;;;10.70;99.90;;;;;;5223091;28;20444;-52